KEPH/EPH METAR and TAF weather

Enter ICAO airport designator
Station Type Date Time Source
KEPH METAR 2020/09/20 01:53 UTC NOAA

KEPH 200153Z AUTO 29013KT 10SM BKN085 23/06 A2992 RMK AO2 SLP128 T02280061


Station Type Date Time Source
KEPH Decoded METAR 2020/09/20 01:53 UTC NOAA

EPHRATA MUNICIPAL AIRPORT, WA, United States (KEPH) 47-18N 119-31W 383M
Sep 19, 2020 - 09:53 PM EDT / 2020.09.20 0153 UTC
Wind: from the WNW (290 degrees) at 15 MPH (13 KT):0
Visibility: 10 mile(s):0
Sky conditions: mostly cloudy
Temperature: 73.0 F (22.8 C)
Dew Point: 43.0 F (6.1 C)
Relative Humidity: 33%
Pressure (altimeter): 29.92 in. Hg (1013 hPa)
ob: KEPH 200153Z AUTO 29013KT 10SM BKN085 23/06 A2992 RMK AO2 SLP128 T02280061
cycle: 2

Station Type Date Time Source
KEPH TAF UTC NOAA

Error!

Example: see airport list